sensor_id;sensor_type;location;lat;lon;timestamp;temperature;humidity
71188;DHT22;58893;53.130;8.158;2022-08-03T00:01:28;22.80;71.40
71188;DHT22;58893;53.130;8.158;2022-08-03T00:03:54;22.70;71.40
71188;DHT22;58893;53.130;8.158;2022-08-03T00:06:19;22.70;71.20
71188;DHT22;58893;53.130;8.158;2022-08-03T00:08:45;22.70;71.10
71188;DHT22;58893;53.130;8.158;2022-08-03T00:11:11;22.70;70.80
71188;DHT22;58893;53.130;8.158;2022-08-03T00:13:36;22.70;70.40
71188;DHT22;58893;53.130;8.158;2022-08-03T00:16:02;22.70;70.20
71188;DHT22;58893;53.130;8.158;2022-08-03T00:18:28;22.70;70.10
71188;DHT22;58893;53.130;8.158;2022-08-03T00:20:53;22.70;69.90
71188;DHT22;58893;53.130;8.158;2022-08-03T00:23:19;22.60;69.70
71188;DHT22;58893;53.130;8.158;2022-08-03T00:25:44;22.60;69.60
71188;DHT22;58893;53.130;8.158;2022-08-03T00:28:11;22.60;69.30
71188;DHT22;58893;53.130;8.158;2022-08-03T00:30:36;22.60;69.30
71188;DHT22;58893;53.130;8.158;2022-08-03T00:33:02;22.60;69.70
71188;DHT22;58893;53.130;8.158;2022-08-03T00:35:29;22.60;70.10
71188;DHT22;58893;53.130;8.158;2022-08-03T00:37:54;22.60;70.20
71188;DHT22;58893;53.130;8.158;2022-08-03T00:40:20;22.60;70.50
71188;DHT22;58893;53.130;8.158;2022-08-03T00:45:11;22.50;70.40
71188;DHT22;58893;53.130;8.158;2022-08-03T00:47:37;22.50;70.30
71188;DHT22;58893;53.130;8.158;2022-08-03T00:50:03;22.50;70.40
71188;DHT22;58893;53.130;8.158;2022-08-03T00:52:28;22.50;70.50
71188;DHT22;58893;53.130;8.158;2022-08-03T00:54:54;22.40;70.40
71188;DHT22;58893;53.130;8.158;2022-08-03T00:57:20;22.40;70.20
71188;DHT22;58893;53.130;8.158;2022-08-03T00:59:45;22.40;69.90
71188;DHT22;58893;53.130;8.158;2022-08-03T01:02:11;22.40;69.70
71188;DHT22;58893;53.130;8.158;2022-08-03T01:04:36;22.40;70.10
71188;DHT22;58893;53.130;8.158;2022-08-03T01:07:11;22.40;69.00
71188;DHT22;58893;53.130;8.158;2022-08-03T01:09:59;22.30;68.70
71188;DHT22;58893;53.130;8.158;2022-08-03T01:12:37;22.30;68.50
71188;DHT22;58893;53.130;8.158;2022-08-03T01:20:11;22.30;69.40
71188;DHT22;58893;53.130;8.158;2022-08-03T01:23:02;22.30;69.50
71188;DHT22;58893;53.130;8.158;2022-08-03T01:25:33;22.30;69.40
71188;DHT22;58893;53.130;8.158;2022-08-03T01:28:32;22.30;69.40
71188;DHT22;58893;53.130;8.158;2022-08-03T01:31:06;22.30;69.40
71188;DHT22;58893;53.130;8.158;2022-08-03T01:33:38;22.20;69.30
71188;DHT22;58893;53.130;8.158;2022-08-03T01:39:04;22.20;70.00
71188;DHT22;58893;53.130;8.158;2022-08-03T01:41:39;22.20;69.30
71188;DHT22;58893;53.130;8.158;2022-08-03T01:44:08;22.20;69.20
71188;DHT22;58893;53.130;8.158;2022-08-03T01:46:36;22.10;69.10
71188;DHT22;58893;53.130;8.158;2022-08-03T01:49:03;22.10;69.10
71188;DHT22;58893;53.130;8.158;2022-08-03T01:51:31;22.10;69.00
71188;DHT22;58893;53.130;8.158;2022-08-03T01:53:59;22.10;69.10
71188;DHT22;58893;53.130;8.158;2022-08-03T01:56:27;22.10;69.20
71188;DHT22;58893;53.130;8.158;2022-08-03T01:58:53;22.00;69.10
71188;DHT22;58893;53.130;8.158;2022-08-03T02:01:22;22.00;69.10
71188;DHT22;58893;53.130;8.158;2022-08-03T02:03:49;22.00;69.10
71188;DHT22;58893;53.130;8.158;2022-08-03T02:06:18;21.90;69.00
71188;DHT22;58893;53.130;8.158;2022-08-03T02:08:46;21.90;70.30
71188;DHT22;58893;53.130;8.158;2022-08-03T02:11:12;21.90;70.40
71188;DHT22;58893;53.130;8.158;2022-08-03T02:13:38;21.90;69.60
71188;DHT22;58893;53.130;8.158;2022-08-03T02:16:05;21.80;69.30
71188;DHT22;58893;53.130;8.158;2022-08-03T02:18:32;21.90;69.60
71188;DHT22;58893;53.130;8.158;2022-08-03T02:21:00;21.80;69.70
71188;DHT22;58893;53.130;8.158;2022-08-03T02:23:26;21.80;70.20
71188;DHT22;58893;53.130;8.158;2022-08-03T02:25:57;21.80;70.70
71188;DHT22;58893;53.130;8.158;2022-08-03T02:28:34;21.80;70.60
71188;DHT22;58893;53.130;8.158;2022-08-03T02:31:04;21.80;70.90
71188;DHT22;58893;53.130;8.158;2022-08-03T02:33:32;21.80;70.20
71188;DHT22;58893;53.130;8.158;2022-08-03T02:36:00;21.70;70.00
71188;DHT22;58893;53.130;8.158;2022-08-03T02:38:30;21.70;69.80
71188;DHT22;58893;53.130;8.158;2022-08-03T02:40:57;21.70;69.80
71188;DHT22;58893;53.130;8.158;2022-08-03T02:43:24;21.70;69.60
71188;DHT22;58893;53.130;8.158;2022-08-03T02:45:52;21.70;69.60
71188;DHT22;58893;53.130;8.158;2022-08-03T02:48:25;21.60;69.50
71188;DHT22;58893;53.130;8.158;2022-08-03T02:50:53;21.60;69.40
71188;DHT22;58893;53.130;8.158;2022-08-03T02:53:21;21.60;69.40
71188;DHT22;58893;53.130;8.158;2022-08-03T02:55:49;21.60;69.50
71188;DHT22;58893;53.130;8.158;2022-08-03T02:58:17;21.60;69.50
71188;DHT22;58893;53.130;8.158;2022-08-03T03:00:44;21.60;69.30
71188;DHT22;58893;53.130;8.158;2022-08-03T03:03:10;21.50;69.30
71188;DHT22;58893;53.130;8.158;2022-08-03T03:05:37;21.50;69.40
71188;DHT22;58893;53.130;8.158;2022-08-03T03:08:05;21.50;69.00
71188;DHT22;58893;53.130;8.158;2022-08-03T03:10:30;21.50;68.90
71188;DHT22;58893;53.130;8.158;2022-08-03T03:12:57;21.50;68.90
71188;DHT22;58893;53.130;8.158;2022-08-03T03:15:25;21.50;69.10
71188;DHT22;58893;53.130;8.158;2022-08-03T03:17:52;21.40;69.10
71188;DHT22;58893;53.130;8.158;2022-08-03T03:20:19;21.40;69.10
71188;DHT22;58893;53.130;8.158;2022-08-03T03:22:47;21.40;69.20
71188;DHT22;58893;53.130;8.158;2022-08-03T03:25:14;21.40;69.20
71188;DHT22;58893;53.130;8.158;2022-08-03T03:27:40;21.40;69.30
71188;DHT22;58893;53.130;8.158;2022-08-03T03:30:07;21.30;69.40
71188;DHT22;58893;53.130;8.158;2022-08-03T03:32:33;21.30;69.40
71188;DHT22;58893;53.130;8.158;2022-08-03T03:35:01;21.30;69.50
71188;DHT22;58893;53.130;8.158;2022-08-03T03:37:27;21.30;69.50
71188;DHT22;58893;53.130;8.158;2022-08-03T03:39:53;21.30;69.50
71188;DHT22;58893;53.130;8.158;2022-08-03T03:42:19;21.30;69.60
71188;DHT22;58893;53.130;8.158;2022-08-03T03:44:45;21.20;69.40
71188;DHT22;58893;53.130;8.158;2022-08-03T03:47:11;21.20;69.30
71188;DHT22;58893;53.130;8.158;2022-08-03T03:49:37;21.20;69.70
71188;DHT22;58893;53.130;8.158;2022-08-03T03:52:03;21.20;69.70
71188;DHT22;58893;53.130;8.158;2022-08-03T03:54:40;21.10;69.60
71188;DHT22;58893;53.130;8.158;2022-08-03T03:57:06;21.10;69.60
71188;DHT22;58893;53.130;8.158;2022-08-03T03:59:31;21.10;69.60
71188;DHT22;58893;53.130;8.158;2022-08-03T04:01:57;21.10;69.50
71188;DHT22;58893;53.130;8.158;2022-08-03T04:04:23;21.10;69.60
71188;DHT22;58893;53.130;8.158;2022-08-03T04:07:07;21.10;69.60
71188;DHT22;58893;53.130;8.158;2022-08-03T04:09:52;21.10;70.10
71188;DHT22;58893;53.130;8.158;2022-08-03T04:12:38;21.10;69.90
71188;DHT22;58893;53.130;8.158;2022-08-03T04:15:05;21.10;70.00
71188;DHT22;58893;53.130;8.158;2022-08-03T04:17:31;21.10;69.90
71188;DHT22;58893;53.130;8.158;2022-08-03T04:19:59;21.10;70.00
71188;DHT22;58893;53.130;8.158;2022-08-03T04:22:27;21.10;70.10
71188;DHT22;58893;53.130;8.158;2022-08-03T04:25:02;21.10;70.20
71188;DHT22;58893;53.130;8.158;2022-08-03T04:27:35;21.10;70.20
71188;DHT22;58893;53.130;8.158;2022-08-03T04:30:03;21.10;70.10
71188;DHT22;58893;53.130;8.158;2022-08-03T04:32:29;21.10;70.00
71188;DHT22;58893;53.130;8.158;2022-08-03T04:34:56;21.10;69.90
71188;DHT22;58893;53.130;8.158;2022-08-03T04:37:40;21.10;69.90
71188;DHT22;58893;53.130;8.158;2022-08-03T04:40:14;21.10;70.00
71188;DHT22;58893;53.130;8.158;2022-08-03T04:42:41;21.10;70.00
71188;DHT22;58893;53.130;8.158;2022-08-03T04:45:11;21.10;70.60
71188;DHT22;58893;53.130;8.158;2022-08-03T04:47:37;21.20;70.20
71188;DHT22;58893;53.130;8.158;2022-08-03T04:50:04;21.20;70.30
71188;DHT22;58893;53.130;8.158;2022-08-03T04:52:30;21.20;70.30
71188;DHT22;58893;53.130;8.158;2022-08-03T04:54:57;21.20;70.30
71188;DHT22;58893;53.130;8.158;2022-08-03T04:57:23;21.20;70.30
71188;DHT22;58893;53.130;8.158;2022-08-03T04:59:49;21.30;70.50
71188;DHT22;58893;53.130;8.158;2022-08-03T05:02:18;21.30;70.50
71188;DHT22;58893;53.130;8.158;2022-08-03T05:04:44;21.30;70.40
71188;DHT22;58893;53.130;8.158;2022-08-03T05:07:12;21.40;70.40
71188;DHT22;58893;53.130;8.158;2022-08-03T05:09:38;21.40;70.30
71188;DHT22;58893;53.130;8.158;2022-08-03T05:12:05;21.50;70.30
71188;DHT22;58893;53.130;8.158;2022-08-03T05:14:32;21.50;70.30
71188;DHT22;58893;53.130;8.158;2022-08-03T05:16:57;21.50;70.30
71188;DHT22;58893;53.130;8.158;2022-08-03T05:19:23;21.60;70.30
71188;DHT22;58893;53.130;8.158;2022-08-03T05:21:49;21.60;70.30
71188;DHT22;58893;53.130;8.158;2022-08-03T05:24:14;21.70;70.30
71188;DHT22;58893;53.130;8.158;2022-08-03T05:26:40;21.70;70.20
71188;DHT22;58893;53.130;8.158;2022-08-03T05:29:06;21.80;70.20
71188;DHT22;58893;53.130;8.158;2022-08-03T05:31:31;21.90;70.30
71188;DHT22;58893;53.130;8.158;2022-08-03T05:33:57;21.90;70.20
71188;DHT22;58893;53.130;8.158;2022-08-03T05:36:22;22.00;70.20
71188;DHT22;58893;53.130;8.158;2022-08-03T05:38:48;22.00;70.20
71188;DHT22;58893;53.130;8.158;2022-08-03T05:41:14;22.10;70.40
71188;DHT22;58893;53.130;8.158;2022-08-03T05:43:39;22.20;70.50
71188;DHT22;58893;53.130;8.158;2022-08-03T05:46:05;22.30;70.60
71188;DHT22;58893;53.130;8.158;2022-08-03T05:48:30;22.40;70.70
71188;DHT22;58893;53.130;8.158;2022-08-03T05:50:56;22.40;70.70
71188;DHT22;58893;53.130;8.158;2022-08-03T05:53:21;22.50;70.80
71188;DHT22;58893;53.130;8.158;2022-08-03T05:55:47;22.60;70.90
71188;DHT22;58893;53.130;8.158;2022-08-03T05:58:13;22.70;70.60
71188;DHT22;58893;53.130;8.158;2022-08-03T06:00:38;22.80;70.60
71188;DHT22;58893;53.130;8.158;2022-08-03T06:03:04;22.80;70.50
71188;DHT22;58893;53.130;8.158;2022-08-03T06:05:29;22.90;70.60
71188;DHT22;58893;53.130;8.158;2022-08-03T06:07:55;23.00;70.60
71188;DHT22;58893;53.130;8.158;2022-08-03T06:10:21;23.10;70.60
71188;DHT22;58893;53.130;8.158;2022-08-03T06:12:47;23.30;70.70
71188;DHT22;58893;53.130;8.158;2022-08-03T06:15:14;23.40;70.50
71188;DHT22;58893;53.130;8.158;2022-08-03T06:17:50;23.50;70.40
71188;DHT22;58893;53.130;8.158;2022-08-03T06:20:18;23.60;70.20
71188;DHT22;58893;53.130;8.158;2022-08-03T06:22:45;23.70;70.00
71188;DHT22;58893;53.130;8.158;2022-08-03T06:25:10;23.80;69.80
71188;DHT22;58893;53.130;8.158;2022-08-03T06:27:36;23.90;69.70
71188;DHT22;58893;53.130;8.158;2022-08-03T06:30:05;24.00;69.50
71188;DHT22;58893;53.130;8.158;2022-08-03T06:32:31;24.00;69.20
71188;DHT22;58893;53.130;8.158;2022-08-03T06:34:58;24.20;69.30
71188;DHT22;58893;53.130;8.158;2022-08-03T06:37:24;24.20;69.10
71188;DHT22;58893;53.130;8.158;2022-08-03T06:39:52;24.30;69.10
71188;DHT22;58893;53.130;8.158;2022-08-03T06:42:17;24.40;69.10
71188;DHT22;58893;53.130;8.158;2022-08-03T06:44:43;24.50;68.80
71188;DHT22;58893;53.130;8.158;2022-08-03T06:47:08;24.50;68.30
71188;DHT22;58893;53.130;8.158;2022-08-03T06:49:34;24.60;68.20
71188;DHT22;58893;53.130;8.158;2022-08-03T06:52:00;24.60;68.30
71188;DHT22;58893;53.130;8.158;2022-08-03T06:54:25;24.60;68.30
71188;DHT22;58893;53.130;8.158;2022-08-03T06:56:51;24.70;68.40
71188;DHT22;58893;53.130;8.158;2022-08-03T06:59:17;24.70;68.40
71188;DHT22;58893;53.130;8.158;2022-08-03T07:01:42;24.70;68.20
71188;DHT22;58893;53.130;8.158;2022-08-03T07:04:08;24.70;68.70
71188;DHT22;58893;53.130;8.158;2022-08-03T07:06:34;24.80;68.00
71188;DHT22;58893;53.130;8.158;2022-08-03T07:08:59;24.80;67.90
71188;DHT22;58893;53.130;8.158;2022-08-03T07:11:26;24.90;67.90
71188;DHT22;58893;53.130;8.158;2022-08-03T07:13:52;24.90;67.80
71188;DHT22;58893;53.130;8.158;2022-08-03T07:16:18;24.90;67.90
71188;DHT22;58893;53.130;8.158;2022-08-03T07:18:44;24.90;67.90
71188;DHT22;58893;53.130;8.158;2022-08-03T07:21:10;24.90;67.90
71188;DHT22;58893;53.130;8.158;2022-08-03T07:23:37;24.90;68.10
71188;DHT22;58893;53.130;8.158;2022-08-03T07:26:03;24.90;68.20
71188;DHT22;58893;53.130;8.158;2022-08-03T07:28:29;24.90;68.20
71188;DHT22;58893;53.130;8.158;2022-08-03T07:30:54;25.00;68.30
71188;DHT22;58893;53.130;8.158;2022-08-03T07:33:20;25.00;68.20
71188;DHT22;58893;53.130;8.158;2022-08-03T07:35:46;25.00;68.10
71188;DHT22;58893;53.130;8.158;2022-08-03T07:38:11;25.00;67.90
71188;DHT22;58893;53.130;8.158;2022-08-03T07:40:37;25.00;67.80
71188;DHT22;58893;53.130;8.158;2022-08-03T07:43:03;25.00;67.50
71188;DHT22;58893;53.130;8.158;2022-08-03T07:45:30;25.00;67.10
71188;DHT22;58893;53.130;8.158;2022-08-03T07:47:56;25.00;66.80
71188;DHT22;58893;53.130;8.158;2022-08-03T07:50:22;25.00;66.70
71188;DHT22;58893;53.130;8.158;2022-08-03T07:52:48;25.10;66.70
71188;DHT22;58893;53.130;8.158;2022-08-03T07:55:15;25.10;66.70
71188;DHT22;58893;53.130;8.158;2022-08-03T07:57:42;25.10;66.90
71188;DHT22;58893;53.130;8.158;2022-08-03T08:00:14;25.10;66.90
71188;DHT22;58893;53.130;8.158;2022-08-03T08:02:41;25.20;66.80
71188;DHT22;58893;53.130;8.158;2022-08-03T08:05:07;25.20;66.70
71188;DHT22;58893;53.130;8.158;2022-08-03T08:07:34;25.20;66.50
71188;DHT22;58893;53.130;8.158;2022-08-03T08:10:00;25.20;66.40
71188;DHT22;58893;53.130;8.158;2022-08-03T08:12:26;25.30;66.30
71188;DHT22;58893;53.130;8.158;2022-08-03T08:14:51;25.30;66.20
71188;DHT22;58893;53.130;8.158;2022-08-03T08:17:17;25.30;66.20
71188;DHT22;58893;53.130;8.158;2022-08-03T08:19:44;25.30;66.40
71188;DHT22;58893;53.130;8.158;2022-08-03T08:22:10;25.30;66.30
71188;DHT22;58893;53.130;8.158;2022-08-03T08:24:35;25.40;66.30
71188;DHT22;58893;53.130;8.158;2022-08-03T08:27:01;25.40;66.40
71188;DHT22;58893;53.130;8.158;2022-08-03T08:29:26;25.40;66.40
71188;DHT22;58893;53.130;8.158;2022-08-03T08:31:52;25.40;66.40
71188;DHT22;58893;53.130;8.158;2022-08-03T08:34:18;25.40;66.40
71188;DHT22;58893;53.130;8.158;2022-08-03T08:36:43;25.40;66.30
71188;DHT22;58893;53.130;8.158;2022-08-03T08:39:09;25.40;66.10
71188;DHT22;58893;53.130;8.158;2022-08-03T08:41:34;25.50;66.00
71188;DHT22;58893;53.130;8.158;2022-08-03T08:44:00;25.50;65.70
71188;DHT22;58893;53.130;8.158;2022-08-03T08:46:31;25.50;65.40
71188;DHT22;58893;53.130;8.158;2022-08-03T08:48:58;25.50;65.20
71188;DHT22;58893;53.130;8.158;2022-08-03T08:51:29;25.50;65.20
71188;DHT22;58893;53.130;8.158;2022-08-03T08:53:56;25.50;65.30
71188;DHT22;58893;53.130;8.158;2022-08-03T08:56:25;25.50;65.20
71188;DHT22;58893;53.130;8.158;2022-08-03T08:58:55;25.50;64.70
71188;DHT22;58893;53.130;8.158;2022-08-03T09:01:22;25.50;64.90
71188;DHT22;58893;53.130;8.158;2022-08-03T09:03:48;25.50;63.80
71188;DHT22;58893;53.130;8.158;2022-08-03T09:06:13;25.50;63.50
71188;DHT22;58893;53.130;8.158;2022-08-03T09:08:39;25.50;63.50
71188;DHT22;58893;53.130;8.158;2022-08-03T09:11:05;25.50;63.40
71188;DHT22;58893;53.130;8.158;2022-08-03T09:13:32;25.60;63.20
71188;DHT22;58893;53.130;8.158;2022-08-03T09:16:28;25.60;63.00
71188;DHT22;58893;53.130;8.158;2022-08-03T09:18:54;25.60;62.80
71188;DHT22;58893;53.130;8.158;2022-08-03T09:23:51;25.60;62.30
71188;DHT22;58893;53.130;8.158;2022-08-03T09:26:21;25.60;62.20
71188;DHT22;58893;53.130;8.158;2022-08-03T09:28:54;25.70;62.00
71188;DHT22;58893;53.130;8.158;2022-08-03T09:31:29;25.70;61.40
71188;DHT22;58893;53.130;8.158;2022-08-03T09:33:56;25.70;60.90
71188;DHT22;58893;53.130;8.158;2022-08-03T09:36:47;25.80;60.50
71188;DHT22;58893;53.130;8.158;2022-08-03T09:39:18;25.80;59.90
71188;DHT22;58893;53.130;8.158;2022-08-03T09:44:57;25.80;59.60
71188;DHT22;58893;53.130;8.158;2022-08-03T09:47:31;25.90;59.80
71188;DHT22;58893;53.130;8.158;2022-08-03T09:50:03;25.90;60.00
71188;DHT22;58893;53.130;8.158;2022-08-03T09:52:39;26.00;60.00
71188;DHT22;58893;53.130;8.158;2022-08-03T09:55:10;26.00;60.00
71188;DHT22;58893;53.130;8.158;2022-08-03T09:57:36;26.00;59.90
71188;DHT22;58893;53.130;8.158;2022-08-03T10:00:07;26.00;59.70
71188;DHT22;58893;53.130;8.158;2022-08-03T10:02:35;26.10;59.60
71188;DHT22;58893;53.130;8.158;2022-08-03T10:05:03;26.10;59.50
71188;DHT22;58893;53.130;8.158;2022-08-03T10:07:29;26.10;59.60
71188;DHT22;58893;53.130;8.158;2022-08-03T10:09:59;26.10;59.40
71188;DHT22;58893;53.130;8.158;2022-08-03T10:12:25;26.10;59.10
71188;DHT22;58893;53.130;8.158;2022-08-03T10:14:52;26.20;59.00
71188;DHT22;58893;53.130;8.158;2022-08-03T10:17:21;26.20;59.00
71188;DHT22;58893;53.130;8.158;2022-08-03T10:19:48;26.20;58.80
71188;DHT22;58893;53.130;8.158;2022-08-03T10:22:15;26.20;58.50
71188;DHT22;58893;53.130;8.158;2022-08-03T10:24:51;26.30;58.60
71188;DHT22;58893;53.130;8.158;2022-08-03T10:27:18;26.30;59.30
71188;DHT22;58893;53.130;8.158;2022-08-03T10:29:48;26.30;59.00
71188;DHT22;58893;53.130;8.158;2022-08-03T10:32:31;26.30;58.70
71188;DHT22;58893;53.130;8.158;2022-08-03T10:35:07;26.40;58.50
71188;DHT22;58893;53.130;8.158;2022-08-03T10:37:40;26.40;58.50
71188;DHT22;58893;53.130;8.158;2022-08-03T10:40:07;26.40;58.50
71188;DHT22;58893;53.130;8.158;2022-08-03T10:42:45;26.40;58.30
71188;DHT22;58893;53.130;8.158;2022-08-03T10:45:29;26.50;58.40
71188;DHT22;58893;53.130;8.158;2022-08-03T10:47:58;26.50;58.30
71188;DHT22;58893;53.130;8.158;2022-08-03T10:50:24;26.50;58.20
71188;DHT22;58893;53.130;8.158;2022-08-03T10:55:36;26.60;57.90
71188;DHT22;58893;53.130;8.158;2022-08-03T11:01:05;26.70;57.50
71188;DHT22;58893;53.130;8.158;2022-08-03T11:03:31;26.70;57.30
71188;DHT22;58893;53.130;8.158;2022-08-03T11:06:21;26.70;57.20
71188;DHT22;58893;53.130;8.158;2022-08-03T11:11:34;26.80;56.10
71188;DHT22;58893;53.130;8.158;2022-08-03T11:14:04;26.90;55.80
71188;DHT22;58893;53.130;8.158;2022-08-03T11:16:36;26.90;55.60
71188;DHT22;58893;53.130;8.158;2022-08-03T11:19:05;27.00;55.40
71188;DHT22;58893;53.130;8.158;2022-08-03T11:46:04;27.90;52.00
71188;DHT22;58893;53.130;8.158;2022-08-03T11:48:39;28.00;51.70
71188;DHT22;58893;53.130;8.158;2022-08-03T11:51:06;28.10;51.30
71188;DHT22;58893;53.130;8.158;2022-08-03T11:53:42;28.10;51.40
71188;DHT22;58893;53.130;8.158;2022-08-03T11:56:08;28.30;51.10
71188;DHT22;58893;53.130;8.158;2022-08-03T11:58:34;28.30;50.80
71188;DHT22;58893;53.130;8.158;2022-08-03T12:01:04;28.40;50.80
71188;DHT22;58893;53.130;8.158;2022-08-03T12:03:34;28.40;50.80
71188;DHT22;58893;53.130;8.158;2022-08-03T12:06:00;28.50;50.40
71188;DHT22;58893;53.130;8.158;2022-08-03T12:10:54;28.70;50.50
71188;DHT22;58893;53.130;8.158;2022-08-03T12:13:21;28.80;50.30
71188;DHT22;58893;53.130;8.158;2022-08-03T12:15:55;28.90;50.70
71188;DHT22;58893;53.130;8.158;2022-08-03T12:18:22;29.00;49.80
71188;DHT22;58893;53.130;8.158;2022-08-03T12:20:50;29.10;49.50
71188;DHT22;58893;53.130;8.158;2022-08-03T12:23:16;29.10;49.40
71188;DHT22;58893;53.130;8.158;2022-08-03T12:25:44;29.20;49.30
71188;DHT22;58893;53.130;8.158;2022-08-03T12:28:14;29.30;49.40
71188;DHT22;58893;53.130;8.158;2022-08-03T12:30:45;29.40;49.10
71188;DHT22;58893;53.130;8.158;2022-08-03T12:33:32;29.40;48.60
71188;DHT22;58893;53.130;8.158;2022-08-03T12:36:18;29.40;48.20
71188;DHT22;58893;53.130;8.158;2022-08-03T12:38:57;29.50;48.60
71188;DHT22;58893;53.130;8.158;2022-08-03T12:41:36;29.50;47.80
71188;DHT22;58893;53.130;8.158;2022-08-03T12:44:04;29.50;47.80
71188;DHT22;58893;53.130;8.158;2022-08-03T12:46:38;29.60;48.10
71188;DHT22;58893;53.130;8.158;2022-08-03T12:49:12;29.60;48.10
71188;DHT22;58893;53.130;8.158;2022-08-03T12:54:16;29.60;47.90
71188;DHT22;58893;53.130;8.158;2022-08-03T12:57:02;29.60;48.20
71188;DHT22;58893;53.130;8.158;2022-08-03T12:59:34;29.60;48.10
71188;DHT22;58893;53.130;8.158;2022-08-03T13:02:00;29.50;47.90
71188;DHT22;58893;53.130;8.158;2022-08-03T13:04:31;29.50;47.70
71188;DHT22;58893;53.130;8.158;2022-08-03T13:07:06;29.50;47.60
71188;DHT22;58893;53.130;8.158;2022-08-03T13:09:51;29.40;47.50
71188;DHT22;58893;53.130;8.158;2022-08-03T13:12:19;29.40;48.00
71188;DHT22;58893;53.130;8.158;2022-08-03T13:14:48;29.40;48.10
71188;DHT22;58893;53.130;8.158;2022-08-03T13:17:14;29.30;47.70
71188;DHT22;58893;53.130;8.158;2022-08-03T13:19:44;29.30;47.20
71188;DHT22;58893;53.130;8.158;2022-08-03T13:24:43;29.30;47.30
71188;DHT22;58893;53.130;8.158;2022-08-03T13:27:09;29.30;47.10
71188;DHT22;58893;53.130;8.158;2022-08-03T13:29:34;29.30;47.00
71188;DHT22;58893;53.130;8.158;2022-08-03T13:32:01;29.30;47.00
71188;DHT22;58893;53.130;8.158;2022-08-03T13:34:27;29.30;46.60
71188;DHT22;58893;53.130;8.158;2022-08-03T13:36:53;29.30;46.10
71188;DHT22;58893;53.130;8.158;2022-08-03T13:39:19;29.30;45.90
71188;DHT22;58893;53.130;8.158;2022-08-03T13:41:45;29.30;46.20
71188;DHT22;58893;53.130;8.158;2022-08-03T13:44:11;29.30;46.40
71188;DHT22;58893;53.130;8.158;2022-08-03T13:46:37;29.30;46.70
71188;DHT22;58893;53.130;8.158;2022-08-03T13:49:02;29.30;46.30
71188;DHT22;58893;53.130;8.158;2022-08-03T13:51:28;29.30;46.20
71188;DHT22;58893;53.130;8.158;2022-08-03T13:53:54;29.30;46.10
71188;DHT22;58893;53.130;8.158;2022-08-03T13:56:20;29.20;45.80
71188;DHT22;58893;53.130;8.158;2022-08-03T13:58:45;29.20;45.90
71188;DHT22;58893;53.130;8.158;2022-08-03T14:01:11;29.20;46.10
71188;DHT22;58893;53.130;8.158;2022-08-03T14:03:38;29.20;45.90
71188;DHT22;58893;53.130;8.158;2022-08-03T14:06:03;29.20;45.70
71188;DHT22;58893;53.130;8.158;2022-08-03T14:08:29;29.20;45.30
71188;DHT22;58893;53.130;8.158;2022-08-03T14:10:54;29.20;45.00
71188;DHT22;58893;53.130;8.158;2022-08-03T14:13:20;29.20;44.70
71188;DHT22;58893;53.130;8.158;2022-08-03T14:15:47;29.20;44.30
71188;DHT22;58893;53.130;8.158;2022-08-03T14:18:12;29.20;44.30
71188;DHT22;58893;53.130;8.158;2022-08-03T14:20:38;29.20;44.40
71188;DHT22;58893;53.130;8.158;2022-08-03T14:23:04;29.20;44.60
71188;DHT22;58893;53.130;8.158;2022-08-03T14:25:31;29.20;44.80
71188;DHT22;58893;53.130;8.158;2022-08-03T14:27:56;29.30;45.00
71188;DHT22;58893;53.130;8.158;2022-08-03T14:30:22;29.30;45.30
71188;DHT22;58893;53.130;8.158;2022-08-03T14:32:48;29.30;44.80
71188;DHT22;58893;53.130;8.158;2022-08-03T14:35:13;29.30;43.90
71188;DHT22;58893;53.130;8.158;2022-08-03T14:37:39;29.30;43.50
71188;DHT22;58893;53.130;8.158;2022-08-03T14:40:05;29.30;43.50
71188;DHT22;58893;53.130;8.158;2022-08-03T14:42:31;29.30;43.80
71188;DHT22;58893;53.130;8.158;2022-08-03T14:44:56;29.40;44.10
71188;DHT22;58893;53.130;8.158;2022-08-03T14:47:22;29.40;43.90
71188;DHT22;58893;53.130;8.158;2022-08-03T14:49:48;29.40;43.90
71188;DHT22;58893;53.130;8.158;2022-08-03T14:52:13;29.40;43.80
71188;DHT22;58893;53.130;8.158;2022-08-03T14:54:39;29.40;43.50
71188;DHT22;58893;53.130;8.158;2022-08-03T14:57:04;29.40;43.40
71188;DHT22;58893;53.130;8.158;2022-08-03T14:59:30;29.40;43.30
71188;DHT22;58893;53.130;8.158;2022-08-03T15:01:56;29.40;43.20
71188;DHT22;58893;53.130;8.158;2022-08-03T15:04:21;29.30;43.10
71188;DHT22;58893;53.130;8.158;2022-08-03T15:06:47;29.40;43.10
71188;DHT22;58893;53.130;8.158;2022-08-03T15:09:13;29.30;42.90
71188;DHT22;58893;53.130;8.158;2022-08-03T15:11:38;29.30;43.20
71188;DHT22;58893;53.130;8.158;2022-08-03T15:14:04;29.30;43.70
71188;DHT22;58893;53.130;8.158;2022-08-03T15:16:30;29.30;44.40
71188;DHT22;58893;53.130;8.158;2022-08-03T15:18:56;29.30;44.80
71188;DHT22;58893;53.130;8.158;2022-08-03T15:21:22;29.40;44.70
71188;DHT22;58893;53.130;8.158;2022-08-03T15:23:47;29.40;44.40
71188;DHT22;58893;53.130;8.158;2022-08-03T15:26:13;29.40;44.60
71188;DHT22;58893;53.130;8.158;2022-08-03T15:28:38;29.40;44.90
71188;DHT22;58893;53.130;8.158;2022-08-03T15:31:05;29.30;45.10
71188;DHT22;58893;53.130;8.158;2022-08-03T15:33:31;29.30;45.10
71188;DHT22;58893;53.130;8.158;2022-08-03T15:35:57;29.40;45.40
71188;DHT22;58893;53.130;8.158;2022-08-03T15:38:24;29.30;45.40
71188;DHT22;58893;53.130;8.158;2022-08-03T15:40:50;29.30;45.20
71188;DHT22;58893;53.130;8.158;2022-08-03T15:43:22;29.30;45.30
71188;DHT22;58893;53.130;8.158;2022-08-03T15:45:47;29.30;45.50
71188;DHT22;58893;53.130;8.158;2022-08-03T15:48:13;29.30;45.70
71188;DHT22;58893;53.130;8.158;2022-08-03T15:50:39;29.30;46.00
71188;DHT22;58893;53.130;8.158;2022-08-03T15:53:04;29.40;46.20
71188;DHT22;58893;53.130;8.158;2022-08-03T15:55:30;29.30;45.90
71188;DHT22;58893;53.130;8.158;2022-08-03T15:57:56;29.30;45.90
71188;DHT22;58893;53.130;8.158;2022-08-03T16:00:22;29.40;45.90
71188;DHT22;58893;53.130;8.158;2022-08-03T16:02:48;29.40;45.60
71188;DHT22;58893;53.130;8.158;2022-08-03T16:05:13;29.40;45.10
71188;DHT22;58893;53.130;8.158;2022-08-03T16:07:39;29.40;45.30
71188;DHT22;58893;53.130;8.158;2022-08-03T16:10:10;29.40;44.60
71188;DHT22;58893;53.130;8.158;2022-08-03T16:12:36;29.40;44.70
71188;DHT22;58893;53.130;8.158;2022-08-03T16:15:08;29.40;44.70
71188;DHT22;58893;53.130;8.158;2022-08-03T16:17:34;29.40;44.80
71188;DHT22;58893;53.130;8.158;2022-08-03T16:19:59;29.50;45.00
71188;DHT22;58893;53.130;8.158;2022-08-03T16:22:25;29.50;45.20
71188;DHT22;58893;53.130;8.158;2022-08-03T16:24:54;29.50;45.30
71188;DHT22;58893;53.130;8.158;2022-08-03T16:27:21;29.50;45.60
71188;DHT22;58893;53.130;8.158;2022-08-03T16:29:46;29.50;45.60
71188;DHT22;58893;53.130;8.158;2022-08-03T16:32:13;29.40;45.60